Decoded Metar for KAXN (ALEXANDRIA in MN, USA) (IATA:AXN) | Meteo·Mobile Aviation Weather
aviador You're here:

KAXN Decoded Metar

ALEXANDRIA in MN, USA
Report Time2019-07-15 23:53:00
UTC Time2019-07-15 23:57:37
Flight Rules vfr VFR
Wind210° at 05 kt
W.Decomp.*RWY 22: 4.9 kt HW 1.2 kt LCW
RWY 13: 1.2 kt HW 4.9 kt RCW
Visibility9999 m
Phenomena:N/A
Clouds:N/A
Expected CloudBase > 3,200 ft AGL from Temp-Dew spread
CeilingNone
Temp29°C (ISA +17)
Dew Point21°C (62% RH)
Heat Index31.3°C
QNH1009 hPa
Density Alt3,816 ft
Elevation1,421 ft
Report Wrong Elevation
Raw Report
METAR KAXN 152353Z AUTO 21005KT 10SM CLR 29/21 A2979 RMK AO2 TSE01
SLP079 60047 T02890211 10339 20239 58007=

Extra information for KAXN:More info

Metar Taf Metar & Taf Last 4 Metars F.Rules Stats Wind Profile Meteogram Temp Stats Airport Information Weather charts Add Link Nearby VenuesMetar ALERT Operation Metar Decoded Social comments

AIRNAV info for KAXN